createdAt,value
2023-03-29T00:05:11.006Z,8.06319
2023-03-29T00:15:12.111Z,7.87386
2023-03-29T00:25:13.186Z,7.72672
2023-03-29T00:35:14.254Z,7.5079
2023-03-29T00:45:15.488Z,7.63158
2023-03-29T00:55:16.668Z,7.82946
2023-03-29T01:05:17.854Z,8.09046
2023-03-29T01:15:18.978Z,8.24648
2023-03-29T01:25:20.046Z,8.11646
2023-03-29T01:35:21.463Z,8.26805
2023-03-29T01:45:22.547Z,8.46308
2023-03-29T01:55:23.612Z,8.35336
2023-03-29T02:05:24.720Z,8.119
2023-03-29T02:15:25.909Z,7.93475
2023-03-29T02:25:27.030Z,7.85705
2023-03-29T02:35:28.172Z,7.7264
2023-03-29T02:45:29.233Z,7.62936
2023-03-29T02:55:30.472Z,7.67946
2023-03-29T03:05:31.653Z,7.5634
2023-03-29T03:15:32.731Z,7.60177
2023-03-29T03:25:33.840Z,7.61509
2023-03-29T03:35:34.975Z,7.65505
2023-03-29T03:45:36.119Z,7.7023
2023-03-29T03:55:37.218Z,7.76604
2023-03-29T04:05:38.295Z,7.78887
2023-03-29T04:15:39.453Z,7.69469
2023-03-29T04:25:40.894Z,7.60399
2023-03-29T04:35:42.036Z,7.54152
2023-03-29T04:45:43.161Z,7.61509
2023-03-29T04:55:44.287Z,7.57196
2023-03-29T05:05:45.436Z,7.5561
2023-03-29T05:15:46.555Z,7.53549
2023-03-29T05:25:47.624Z,7.73433
2023-03-29T05:35:48.752Z,7.89574
2023-03-29T05:45:49.899Z,7.90748
2023-03-29T05:55:51.300Z,8.1986
2023-03-29T06:05:52.502Z,8.52619
2023-03-29T06:15:53.616Z,8.64924
2023-03-29T06:25:54.838Z,8.71298
2023-03-29T06:35:55.959Z,8.92165
2023-03-29T06:45:57.236Z,9.13
2023-03-29T06:55:58.349Z,9.30094
2023-03-29T07:05:59.582Z,9.30538
2023-03-29T07:16:00.924Z,9.35072
2023-03-29T07:26:02.667Z,9.49851
2023-03-29T07:36:04.501Z,9.63614
2023-03-29T07:46:06.443Z,9.91585
2023-03-29T07:56:08.148Z,10.09916
2023-03-29T08:06:09.782Z,10.38553
2023-03-29T08:16:11.239Z,21.7276
2023-03-29T08:26:12.359Z,10.53965
2023-03-29T08:36:13.571Z,10.62655
2023-03-29T08:46:14.770Z,10.53014
2023-03-29T08:56:15.899Z,10.81334
2023-03-29T09:06:17.006Z,11.23006
2023-03-29T09:16:18.254Z,11.45015
2023-03-29T09:26:19.404Z,11.71433
2023-03-29T09:36:20.785Z,11.82818
2023-03-29T09:46:21.941Z,11.7619
2023-03-29T09:56:23.067Z,11.94362
2023-03-29T10:06:24.184Z,12.23666
2023-03-29T10:16:25.338Z,12.90741
2023-03-29T10:26:26.441Z,12.89948
2023-03-29T10:36:27.542Z,12.89187
2023-03-29T10:46:28.729Z,12.96101
2023-03-29T10:56:29.934Z,13.46527
2023-03-29T11:06:31.296Z,13.36124
2023-03-29T11:16:32.406Z,13.35554
2023-03-29T11:26:33.524Z,13.26039
2023-03-29T11:36:34.628Z,13.1624
2023-03-29T11:46:35.794Z,13.06186
2023-03-29T11:56:36.884Z,13.09738
2023-03-29T12:06:38.002Z,12.83954
2023-03-29T12:16:39.141Z,12.65116
2023-03-29T12:26:40.498Z,12.64577
2023-03-29T12:36:41.636Z,12.39079
2023-03-29T12:46:42.790Z,12.31594
2023-03-29T12:56:44.009Z,12.37652
2023-03-29T13:06:45.142Z,12.43043
2023-03-29T13:16:46.225Z,12.39998
2023-03-29T13:26:47.324Z,12.25949
2023-03-29T13:36:48.455Z,12.33973
2023-03-29T13:46:49.658Z,12.34734
2023-03-29T13:56:51.042Z,12.38857
2023-03-29T14:06:52.156Z,12.45612
2023-03-29T14:16:53.288Z,12.38381
2023-03-29T14:26:54.476Z,12.44216
2023-03-29T14:36:55.693Z,12.49259
2023-03-29T14:46:56.886Z,12.50813
2023-03-29T14:56:58.025Z,12.74155
2023-03-29T15:06:59.212Z,13.1107
2023-03-29T15:17:00.517Z,13.39328
2023-03-29T15:27:02.324Z,13.44212
2023-03-29T15:37:04.084Z,13.60228
2023-03-29T15:47:05.889Z,13.77924
2023-03-29T15:57:07.807Z,13.86487
2023-03-29T16:07:09.529Z,14.13825
2023-03-29T16:17:11.149Z,14.12842
2023-03-29T16:27:12.254Z,14.17346
2023-03-29T16:37:13.349Z,14.12525
2023-03-29T16:47:14.461Z,14.02154
2023-03-29T16:57:15.809Z,14.00378
2023-03-29T17:07:17.035Z,14.07324
2023-03-29T17:17:18.133Z,14.08434
2023-03-29T17:27:19.232Z,13.95462
2023-03-29T17:37:20.518Z,13.83538
2023-03-29T17:47:21.631Z,13.72184
2023-03-29T17:57:22.878Z,13.61813
2023-03-29T18:07:24.204Z,13.45988
2023-03-29T18:17:25.340Z,13.30606
2023-03-29T18:27:26.511Z,13.19126
2023-03-29T18:37:27.624Z,13.09326
2023-03-29T18:47:28.861Z,13.06662
2023-03-29T18:57:30.073Z,12.96735
2023-03-29T19:07:31.725Z,12.90297
2023-03-29T19:17:32.859Z,12.89504
2023-03-29T19:27:34.046Z,12.81322
2023-03-29T19:37:35.175Z,12.7907
2023-03-29T19:47:36.519Z,12.73013
2023-03-29T19:57:37.794Z,12.66924
2023-03-29T20:07:39.147Z,12.70349
2023-03-29T20:17:40.573Z,12.65211
2023-03-29T20:27:41.884Z,12.57314
2023-03-29T20:37:43.105Z,12.49766
2023-03-29T20:47:44.408Z,12.36002
2023-03-29T20:57:45.524Z,12.3578
2023-03-29T21:07:46.778Z,12.31721
2023-03-29T21:17:47.957Z,12.27408
2023-03-29T21:27:49.566Z,12.25664
2023-03-29T21:37:50.988Z,12.18496
2023-03-29T21:47:52.134Z,12.09965
2023-03-29T21:57:54.231Z,12.08284
2023-03-29T22:07:55.343Z,12.05303
2023-03-29T22:17:58.616Z,12.05874
2023-03-29T22:28:01.185Z,12.01529
2023-03-29T22:38:02.790Z,11.98231
2023-03-29T22:48:04.579Z,11.95821
2023-03-29T22:58:06.298Z,11.94172
2023-03-29T23:08:07.932Z,11.95504
2023-03-29T23:18:09.362Z,11.89224
2023-03-29T23:28:10.888Z,11.80788
2023-03-29T23:38:12.003Z,11.74763
2023-03-29T23:48:13.117Z,11.81962
2023-03-29T23:58:14.204Z,11.8212
